Time;durP1;ratioP1;P1;durP2;ratioP2;P2;SDS_P1;SDS_P2;PMS_P1;PMS_P2;Temp;Humidity;BMP_temperature;BMP_pressure;BME280_temperature;BME280_humidity;BME280_pressure;Samples;Min_cycle;Max_cycle;Signal;HPM_P1;HPM_P2
2022/03/18 00:02:26;;;;;;;3.97;0.80;;;19.50;51.70;;;;;;4933620;29;20389;-84
2022/03/18 00:04:53;;;;;;;2.90;0.90;;;18.20;51.80;;;;;;4933131;29;20074;-85
2022/03/18 00:07:21;;;;;;;2.65;0.85;;;18.70;51.30;;;;;;4932968;29;20154;-84
2022/03/18 00:09:50;;;;;;;1.90;0.68;;;19.90;52.80;;;;;;4916602;29;20100;-84
2022/03/18 00:12:16;;;;;;;2.22;0.60;;;19.70;51.90;;;;;;4916265;29;20051;-84
2022/03/18 00:14:51;;;;;;;2.85;0.82;;;17.30;51.20;;;;;;4915511;29;20051;-84
2022/03/18 00:17:32;;;;;;;2.95;0.80;;;19.60;52.40;;;;;;4916148;29;20048;-84
2022/03/18 00:19:57;;;;;;;2.88;0.90;;;18.50;51.80;;;;;;4916279;29;20079;-84
2022/03/18 00:22:23;;;;;;;2.38;0.60;;;19.90;52.10;;;;;;4915416;29;20603;-84
2022/03/18 00:24:49;;;;;;;2.78;0.70;;;18.10;50.90;;;;;;4900334;29;20056;-84
2022/03/18 00:27:26;;;;;;;2.78;0.70;;;18.50;51.20;;;;;;4916248;29;20095;-84
2022/03/18 00:29:51;;;;;;;4.07;0.88;;;19.50;51.70;;;;;;4933624;29;20058;-84
2022/03/18 00:32:21;;;;;;;3.42;0.70;;;17.70;50.90;;;;;;4916111;29;20043;-85
2022/03/18 00:34:50;;;;;;;2.70;0.70;;;18.20;51.30;;;;;;4915076;29;20126;-84
2022/03/18 00:37:16;;;;;;;3.00;0.75;;;17.40;50.80;;;;;;4933079;29;20040;-84
2022/03/18 00:39:50;;;;;;;3.45;0.90;;;17.80;50.90;;;;;;4933344;29;20054;-85
2022/03/18 00:42:16;;;;;;;2.63;0.70;;;18.90;51.60;;;;;;4915629;29;20062;-85
2022/03/18 00:44:42;;;;;;;2.35;0.68;;;18.40;51.20;;;;;;4914484;29;20055;-85
2022/03/18 00:52:37;;;;;;;2.38;0.60;;;18.50;51.20;;;;;;4933279;29;20102;-84
2022/03/18 00:55:03;;;;;;;2.30;0.60;;;18.50;51.20;;;;;;4916129;29;20047;-85
2022/03/18 00:57:28;;;;;;;3.55;0.68;;;18.50;51.20;;;;;;4915485;29;20047;-85
2022/03/18 00:59:54;;;;;;;2.33;0.50;;;18.50;51.20;;;;;;4915919;29;20062;-85
2022/03/18 01:02:19;;;;;;;2.70;0.82;;;18.50;51.20;;;;;;4916187;29;20419;-84
2022/03/18 01:04:45;;;;;;;3.00;0.80;;;18.40;51.20;;;;;;4930953;29;20056;-85
2022/03/18 01:07:13;;;;;;;2.47;0.80;;;18.40;51.20;;;;;;4915725;29;20106;-85
2022/03/18 01:09:39;;;;;;;2.08;0.75;;;18.50;51.20;;;;;;4915236;29;20047;-84
2022/03/18 01:12:05;;;;;;;2.55;0.65;;;18.40;51.20;;;;;;4933341;29;20374;-84
2022/03/18 01:14:30;;;;;;;5.38;1.10;;;18.40;51.20;;;;;;4916154;29;20138;-84
2022/03/18 01:16:58;;;;;;;3.33;0.63;;;18.40;51.20;;;;;;4915123;29;20724;-84
2022/03/18 01:19:24;;;;;;;1.75;0.50;;;18.40;51.20;;;;;;4933251;29;20054;-84
2022/03/18 01:21:50;;;;;;;4.32;0.55;;;18.40;51.20;;;;;;4931717;29;20048;-84
2022/03/18 01:24:16;;;;;;;1.45;0.55;;;18.40;51.20;;;;;;4915313;29;20087;-84
2022/03/18 01:26:41;;;;;;;3.15;0.75;;;18.40;51.20;;;;;;4916212;29;20058;-85
2022/03/18 01:29:07;;;;;;;1.42;0.50;;;19.80;51.90;;;;;;4931953;29;20040;-84
2022/03/18 01:31:33;;;;;;;4.00;0.85;;;18.30;51.10;;;;;;4917575;29;20547;-84
2022/03/18 01:33:58;;;;;;;2.38;0.60;;;18.40;51.20;;;;;;4919613;29;20040;-84
2022/03/18 01:36:25;;;;;;;2.42;0.60;;;18.30;51.10;;;;;;4936508;29;20506;-85
2022/03/18 01:38:50;;;;;;;2.50;0.60;;;18.30;51.10;;;;;;4935614;29;20178;-84
2022/03/18 01:41:16;;;;;;;2.00;0.60;;;18.30;51.10;;;;;;4936417;29;20118;-83
2022/03/18 01:43:47;;;;;;;3.20;1.08;;;18.30;51.20;;;;;;4936585;29;20047;-84
2022/03/18 01:46:13;;;;;;;2.13;0.80;;;19.10;51.70;;;;;;4935406;29;20048;-84
2022/03/18 01:48:39;;;;;;;4.18;0.65;;;18.20;51.60;;;;;;4936302;29;20732;-84
2022/03/18 01:51:15;;;;;;;1.80;0.60;;;17.90;51.20;;;;;;4936301;29;20040;-84
2022/03/18 01:53:44;;;;;;;2.95;0.85;;;18.00;51.00;;;;;;4935283;29;20056;-84
2022/03/18 01:56:09;;;;;;;1.95;0.60;;;18.50;51.40;;;;;;4935947;29;20369;-84
2022/03/18 01:58:38;;;;;;;2.05;0.57;;;18.30;51.10;;;;;;4935907;29;20499;-84
2022/03/18 02:01:15;;;;;;;2.13;0.57;;;18.30;51.20;;;;;;4934984;29;20035;-84
2022/03/18 02:03:41;;;;;;;2.85;0.70;;;19.60;52.20;;;;;;4913442;23;20122;-84
2022/03/18 02:06:07;;;;;;;1.85;0.50;;;18.30;51.10;;;;;;4917940;29;20056;-84
2022/03/18 02:08:34;;;;;;;2.55;1.33;;;18.30;51.20;;;;;;4934502;29;20051;-84
2022/03/18 02:10:59;;;;;;;3.30;0.60;;;18.30;51.10;;;;;;4918650;29;20063;-83
2022/03/18 02:13:25;;;;;;;2.92;0.68;;;18.20;51.00;;;;;;4933523;29;20047;-83
2022/03/18 02:15:53;;;;;;;2.65;0.70;;;18.30;51.10;;;;;;4934483;29;20055;-84
2022/03/18 02:18:19;;;;;;;2.55;0.60;;;18.20;51.20;;;;;;4924532;29;20448;-84
2022/03/18 02:20:44;;;;;;;2.92;0.98;;;18.20;51.10;;;;;;4934969;29;20396;-84
2022/03/18 02:23:10;;;;;;;2.25;0.60;;;18.00;51.80;;;;;;4935748;29;20093;-84
2022/03/18 02:25:36;;;;;;;1.52;0.45;;;19.50;52.00;;;;;;4934383;29;20065;-84
2022/03/18 02:28:03;;;;;;;2.33;0.70;;;18.20;51.50;;;;;;4934435;29;20103;-84
2022/03/18 02:30:30;;;;;;;2.22;0.60;;;18.20;51.10;;;;;;4934096;29;20044;-84
2022/03/18 02:32:59;;;;;;;2.53;0.60;;;18.20;51.10;;;;;;4935265;29;20055;-84
2022/03/18 02:35:28;;;;;;;1.60;0.50;;;18.20;51.20;;;;;;4934598;29;20504;-84
2022/03/18 02:37:54;;;;;;;1.05;0.43;;;18.20;51.00;;;;;;4934019;29;20097;-85
2022/03/18 02:40:20;;;;;;;2.88;0.60;;;18.20;51.00;;;;;;4933537;29;20048;-84
2022/03/18 02:42:46;;;;;;;2.95;0.80;;;18.20;51.00;;;;;;4933694;29;20046;-83
2022/03/18 02:45:11;;;;;;;2.22;0.63;;;18.20;51.10;;;;;;4935326;29;20055;-84
2022/03/18 02:47:37;;;;;;;3.25;0.88;;;18.20;51.00;;;;;;4934974;29;20055;-84
2022/03/18 02:50:03;;;;;;;2.22;0.65;;;18.20;51.20;;;;;;4933271;29;20058;-84
2022/03/18 02:52:29;;;;;;;2.00;0.65;;;18.20;51.10;;;;;;4934865;29;20059;-84
2022/03/18 02:55:07;;;;;;;2.33;0.70;;;17.30;51.20;;;;;;4933368;29;20067;-84
2022/03/18 02:57:37;;;;;;;1.90;0.57;;;18.10;51.30;;;;;;4917781;29;20106;-84
2022/03/18 03:00:03;;;;;;;2.10;0.50;;;18.60;51.30;;;;;;4933395;29;20412;-84
2022/03/18 03:02:49;;;;;;;1.85;0.50;;;18.10;51.40;;;;;;4932733;29;20036;-84
2022/03/18 03:07:59;;;;;;;2.25;0.70;;;18.20;51.00;;;;;;4953966;29;20083;-84
2022/03/18 03:10:28;;;;;;;1.90;0.88;;;18.10;51.00;;;;;;4935899;29;20082;-84
2022/03/18 03:12:59;;;;;;;3.08;0.70;;;18.10;51.00;;;;;;4936285;29;20043;-84
2022/03/18 03:15:34;;;;;;;2.33;0.60;;;18.10;51.00;;;;;;4936827;29;20051;-84
2022/03/18 03:18:06;;;;;;;2.20;0.50;;;19.00;51.50;;;;;;4952997;29;20036;-84
2022/03/18 03:20:35;;;;;;;1.58;0.47;;;18.10;51.10;;;;;;4953894;29;20137;-84
2022/03/18 03:23:01;;;;;;;1.88;0.50;;;19.20;52.80;;;;;;4953718;29;20031;-84
2022/03/18 03:25:27;;;;;;;1.27;0.50;;;18.10;51.00;;;;;;4952954;29;20154;-84
2022/03/18 03:28:05;;;;;;;1.88;0.60;;;18.10;51.00;;;;;;4953054;29;20070;-84
2022/03/18 03:30:30;;;;;;;2.50;0.80;;;18.10;50.90;;;;;;4951395;29;20094;-84
2022/03/18 03:33:02;;;;;;;2.80;0.77;;;18.50;51.30;;;;;;4936247;29;20089;-84
2022/03/18 03:35:34;;;;;;;2.33;0.68;;;18.50;51.50;;;;;;4935989;29;20043;-84
2022/03/18 03:37:59;;;;;;;2.13;0.60;;;19.90;52.10;;;;;;4935160;29;20055;-83
2022/03/18 03:40:25;;;;;;;2.70;0.60;;;18.10;51.00;;;;;;4953251;29;20049;-84
2022/03/18 03:42:53;;;;;;;3.10;0.60;;;18.00;50.90;;;;;;4953391;29;20138;-84
2022/03/18 03:45:27;;;;;;;2.67;0.70;;;19.40;51.70;;;;;;4952697;29;20058;-84
2022/03/18 03:47:56;;;;;;;1.95;0.68;;;18.00;50.90;;;;;;4953372;29;20097;-84
2022/03/18 03:50:24;;;;;;;2.40;0.70;;;18.00;50.90;;;;;;4935984;29;20087;-83
2022/03/18 03:53:03;;;;;;;1.77;0.50;;;17.90;50.80;;;;;;4952399;28;20039;-84
2022/03/18 03:55:29;;;;;;;2.05;0.45;;;19.40;52.50;;;;;;4935635;29;20089;-84
2022/03/18 03:58:07;;;;;;;2.13;0.70;;;18.00;50.90;;;;;;4935734;29;20492;-83
2022/03/18 04:00:34;;;;;;;1.55;0.40;;;18.00;50.90;;;;;;4933735;29;20055;-83
2022/03/18 04:02:59;;;;;;;1.90;0.68;;;18.00;50.90;;;;;;4935442;29;20090;-83
2022/03/18 04:05:25;;;;;;;3.45;0.85;;;18.00;50.90;;;;;;4934660;29;20066;-83
2022/03/18 04:07:52;;;;;;;1.08;0.40;;;18.00;50.90;;;;;;4952647;29;20047;-83
2022/03/18 04:10:19;;;;;;;2.28;0.68;;;18.70;51.40;;;;;;4934608;29;20055;-84
2022/03/18 04:12:56;;;;;;;3.25;0.75;;;17.90;50.90;;;;;;4952251;29;20072;-83
2022/03/18 04:15:26;;;;;;;2.13;0.50;;;19.90;52.20;;;;;;4952890;29;20070;-84
2022/03/18 04:17:58;;;;;;;1.95;0.60;;;18.00;51.00;;;;;;4935331;29;20087;-84
2022/03/18 04:20:24;;;;;;;2.03;0.60;;;18.30;51.20;;;;;;4951893;29;20103;-84
2022/03/18 04:22:50;;;;;;;1.77;0.50;;;18.00;51.00;;;;;;4952054;29;20578;-83
2022/03/18 04:25:20;;;;;;;2.05;0.52;;;17.90;50.80;;;;;;4919531;29;20039;-83
2022/03/18 04:27:46;;;;;;;1.80;0.55;;;17.90;50.80;;;;;;4934789;29;20055;-83
2022/03/18 04:30:12;;;;;;;2.38;0.55;;;17.90;50.80;;;;;;4935401;29;20050;-84
2022/03/18 04:32:38;;;;;;;1.70;0.60;;;18.00;50.80;;;;;;4935202;29;20078;-83
2022/03/18 04:35:05;;;;;;;1.77;0.70;;;18.00;50.80;;;;;;4934653;29;20492;-84
2022/03/18 04:37:31;;;;;;;1.23;0.43;;;17.90;50.80;;;;;;4919366;29;20959;-84
2022/03/18 04:39:56;;;;;;;2.50;0.52;;;17.90;50.80;;;;;;4935178;29;20071;-83
2022/03/18 04:42:25;;;;;;;1.70;0.60;;;17.90;50.80;;;;;;4934406;29;20053;-84
2022/03/18 04:44:51;;;;;;;1.70;0.50;;;17.90;50.80;;;;;;4935078;29;20118;-84
2022/03/18 04:47:16;;;;;;;1.25;0.45;;;18.20;50.90;;;;;;4934887;29;20063;-83
2022/03/18 04:49:42;;;;;;;1.77;0.60;;;18.50;51.10;;;;;;4918633;29;20058;-84
2022/03/18 04:52:07;;;;;;;1.42;0.40;;;17.90;50.80;;;;;;4935056;29;20079;-84
2022/03/18 04:54:35;;;;;;;0.98;0.45;;;17.90;50.70;;;;;;4951822;29;20047;-83
2022/03/18 04:57:18;;;;;;;1.65;0.60;;;17.90;50.80;;;;;;4934890;29;20684;-83
2022/03/18 04:59:45;;;;;;;3.10;0.70;;;18.00;50.80;;;;;;4934361;29;20058;-84
2022/03/18 05:02:14;;;;;;;2.45;0.75;;;17.90;50.70;;;;;;4952160;29;20066;-84
2022/03/18 05:04:41;;;;;;;1.17;0.50;;;18.90;51.30;;;;;;4934536;29;20055;-83
2022/03/18 05:07:39;;;;;;;1.83;0.63;;;17.80;50.70;;;;;;4955981;29;20058;-83
2022/03/18 05:10:06;;;;;;;2.08;0.80;;;17.20;50.30;;;;;;4861287;29;20088;-84
2022/03/18 05:12:38;;;;;;;2.55;0.60;;;17.90;50.80;;;;;;4862209;29;20424;-84
2022/03/18 05:15:04;;;;;;;1.92;0.63;;;17.90;51.60;;;;;;4929520;29;20531;-84
2022/03/18 05:17:30;;;;;;;1.42;0.50;;;17.80;50.70;;;;;;4937621;29;20075;-83
2022/03/18 05:19:58;;;;;;;1.23;0.40;;;17.80;50.80;;;;;;4956146;29;20134;-84
2022/03/18 05:22:24;;;;;;;1.30;0.60;;;19.00;51.40;;;;;;4938201;29;20142;-83
2022/03/18 05:24:59;;;;;;;2.33;0.50;;;17.60;50.70;;;;;;4937535;29;20459;-82
2022/03/18 05:27:25;;;;;;;1.65;0.50;;;17.70;50.60;;;;;;4955864;29;20051;-84
2022/03/18 05:29:59;;;;;;;1.35;0.60;;;17.80;50.70;;;;;;4954953;29;20095;-84
2022/03/18 05:32:35;;;;;;;1.42;0.50;;;17.80;50.70;;;;;;4955783;29;20046;-83
2022/03/18 05:35:16;;;;;;;1.77;0.60;;;17.90;50.70;;;;;;4955447;29;20078;-84
2022/03/18 05:37:59;;;;;;;3.58;0.65;;;17.10;50.30;;;;;;4937485;29;20051;-84
2022/03/18 05:40:33;;;;;;;1.80;0.40;;;15.80;50.20;;;;;;4938429;29;20130;-84
2022/03/18 05:43:08;;;;;;;1.13;0.50;;;17.90;51.10;;;;;;4955411;29;20051;-84
2022/03/18 05:45:49;;;;;;;2.95;0.70;;;18.20;52.60;;;;;;4937555;29;20043;-83
2022/03/18 05:48:21;;;;;;;1.80;0.70;;;19.60;52.20;;;;;;4937822;29;20057;-85
2022/03/18 05:50:51;;;;;;;1.45;0.50;;;17.40;52.30;;;;;;4955321;29;20051;-84
2022/03/18 05:53:28;;;;;;;2.03;0.60;;;17.90;50.80;;;;;;4937777;29;20078;-84
2022/03/18 05:58:39;;;;;;;2.40;0.73;;;17.80;50.60;;;;;;4923491;29;20158;-84
2022/03/18 06:01:07;;;;;;;1.60;0.47;;;17.60;50.60;;;;;;4921758;29;20137;-85
2022/03/18 06:03:33;;;;;;;1.13;0.40;;;17.80;50.80;;;;;;4937641;29;20530;-84
2022/03/18 06:06:04;;;;;;;1.92;0.50;;;17.70;50.60;;;;;;4921080;29;20054;-84
2022/03/18 06:13:59;;;;;;;2.28;0.57;;;17.70;50.60;;;;;;4954241;29;20134;-84
2022/03/18 06:16:39;;;;;;;1.02;0.40;;;17.70;50.70;;;;;;4952381;28;20114;-85
2022/03/18 06:19:19;;;;;;;2.05;0.65;;;17.70;50.60;;;;;;4953756;29;20526;-84
2022/03/18 06:21:45;;;;;;;1.92;0.60;;;16.40;49.80;;;;;;4937336;29;20046;-85
2022/03/18 06:24:27;;;;;;;1.98;0.77;;;17.70;51.20;;;;;;4937467;29;20043;-85
2022/03/18 06:26:53;;;;;;;1.20;0.55;;;17.40;50.60;;;;;;4937014;29;20046;-85
2022/03/18 06:29:33;;;;;;;0.90;0.40;;;18.00;51.00;;;;;;4954484;29;20046;-84
2022/03/18 06:32:04;;;;;;;1.17;0.50;;;17.90;52.10;;;;;;4925472;29;20043;-84
2022/03/18 06:34:36;;;;;;;2.92;0.68;;;17.80;51.30;;;;;;4936671;29;20053;-84
2022/03/18 06:37:02;;;;;;;1.75;0.55;;;17.70;50.70;;;;;;4954226;29;20051;-84
2022/03/18 06:39:27;;;;;;;1.10;0.50;;;17.70;50.70;;;;;;4953818;29;20118;-84
2022/03/18 06:42:04;;;;;;;2.75;0.60;;;17.70;50.70;;;;;;4936281;29;20047;-84
2022/03/18 06:44:30;;;;;;;1.27;0.70;;;18.30;51.00;;;;;;4936917;29;20058;-84
2022/03/18 06:47:05;;;;;;;2.03;0.50;;;17.20;51.00;;;;;;4952209;28;20039;-84
2022/03/18 06:49:45;;;;;;;1.35;0.45;;;17.70;51.60;;;;;;4943667;29;20075;-85
2022/03/18 06:52:11;;;;;;;1.17;0.50;;;16.40;49.80;;;;;;4923327;29;20385;-84
2022/03/18 06:54:45;;;;;;;1.02;0.57;;;18.60;51.30;;;;;;4953381;29;20057;-84
2022/03/18 06:57:16;;;;;;;2.05;0.63;;;17.20;50.80;;;;;;4953686;29;20611;-84
2022/03/18 06:59:56;;;;;;;1.52;0.55;;;17.00;50.60;;;;;;4953871;29;20066;-84
2022/03/18 07:02:26;;;;;;;1.50;0.30;;;17.20;50.80;;;;;;4936152;29;20134;-84
2022/03/18 07:05:12;;;;;;;1.83;0.50;;;18.80;51.80;;;;;;4932846;29;20067;-84
2022/03/18 07:07:43;;;;;;;1.42;0.50;;;19.00;52.00;;;;;;4930600;29;20138;-84
2022/03/18 07:10:24;;;;;;;1.67;0.52;;;19.00;51.70;;;;;;4931117;29;20055;-85
2022/03/18 07:12:49;;;;;;;1.75;0.50;;;18.60;51.10;;;;;;4914705;29;20059;-85
2022/03/18 07:15:18;;;;;;;1.88;0.50;;;17.60;50.60;;;;;;4914898;29;20040;-84
2022/03/18 07:17:59;;;;;;;1.75;0.50;;;19.50;51.70;;;;;;4913976;29;20531;-84
2022/03/18 07:20:36;;;;;;;1.38;0.45;;;16.90;50.20;;;;;;4914066;29;20527;-84
2022/03/18 07:23:09;;;;;;;2.08;0.55;;;18.40;50.90;;;;;;4914935;29;20177;-84
2022/03/18 07:25:40;;;;;;;1.85;0.50;;;17.60;50.50;;;;;;4915337;29;20048;-84
2022/03/18 07:28:08;;;;;;;1.35;0.50;;;17.60;50.50;;;;;;4926577;29;20511;-84
2022/03/18 07:30:36;;;;;;;3.78;0.63;;;17.60;50.50;;;;;;4932382;29;20059;-82
2022/03/18 07:33:01;;;;;;;1.05;0.40;;;17.60;50.50;;;;;;4933055;29;20051;-82
2022/03/18 07:35:27;;;;;;;2.20;0.52;;;17.60;50.60;;;;;;4934215;29;20040;-82
2022/03/18 07:37:53;;;;;;;1.90;0.50;;;17.60;51.30;;;;;;4933139;29;20491;-83
2022/03/18 07:40:21;;;;;;;1.17;0.50;;;18.00;50.80;;;;;;4932476;29;20043;-83
2022/03/18 07:42:48;;;;;;;1.60;0.40;;;17.60;50.60;;;;;;4934277;29;20048;-83
2022/03/18 07:45:30;;;;;;;1.55;0.85;;;17.50;50.50;;;;;;4933763;29;20043;-84
2022/03/18 07:47:57;;;;;;;;;;;17.60;50.60;;;;;;4933404;29;20054;-84
2022/03/18 07:50:23;;;;;;;1.15;0.43;;;17.60;51.30;;;;;;4933717;29;19922;-85
2022/03/18 07:52:53;;;;;;;2.45;0.70;;;17.60;50.60;;;;;;4930637;29;20484;-83
2022/03/18 07:55:19;;;;;;;1.40;0.50;;;17.60;50.60;;;;;;4924568;29;20059;-86
2022/03/18 07:57:45;;;;;;;1.42;0.70;;;17.60;50.60;;;;;;4915796;29;20052;-85
2022/03/18 08:00:14;;;;;;;1.95;0.60;;;17.60;50.60;;;;;;4928447;29;20095;-85
2022/03/18 08:02:40;;;;;;;1.40;0.50;;;17.60;50.60;;;;;;4933523;29;20377;-85
2022/03/18 08:05:06;;;;;;;1.08;0.50;;;17.60;50.60;;;;;;4931557;29;20056;-85
2022/03/18 08:07:37;;;;;;;1.80;0.50;;;17.60;50.80;;;;;;4933494;29;20051;-85
2022/03/18 08:10:04;;;;;;;1.45;0.50;;;17.60;50.60;;;;;;4930694;29;20047;-85
2022/03/18 08:12:30;;;;;;;1.63;0.47;;;17.60;50.60;;;;;;4923660;29;20080;-85
2022/03/18 08:14:57;;;;;;;2.45;0.60;;;18.70;51.20;;;;;;4928441;29;20036;-86
2022/03/18 08:17:25;;;;;;;1.15;0.50;;;17.60;50.60;;;;;;4916000;29;20079;-86
2022/03/18 08:19:51;;;;;;;2.42;0.60;;;17.60;50.60;;;;;;4915571;29;20595;-90
2022/03/18 08:22:20;;;;;;;1.70;0.75;;;17.60;50.60;;;;;;4916355;29;20508;-86
2022/03/18 08:24:45;;;;;;;1.85;0.60;;;17.60;50.60;;;;;;4916688;29;20043;-88
2022/03/18 08:27:11;;;;;;;2.03;0.60;;;17.60;50.70;;;;;;4931305;29;20760;-84
2022/03/18 08:29:38;;;;;;;3.17;0.68;;;17.70;50.60;;;;;;4931841;29;20416;-83
2022/03/18 08:32:07;;;;;;;3.95;1.00;;;17.70;50.60;;;;;;4931582;29;20098;-83
2022/03/18 08:34:33;;;;;;;2.35;0.80;;;17.70;50.60;;;;;;4931240;29;20157;-82
2022/03/18 08:36:58;;;;;;;4.15;1.27;;;17.70;50.60;;;;;;4933251;29;20514;-82
2022/03/18 08:39:24;;;;;;;4.50;0.90;;;17.70;50.60;;;;;;4932150;29;20051;-82
2022/03/18 08:41:50;;;;;;;2.60;0.93;;;17.70;50.50;;;;;;4936098;29;20047;-80
2022/03/18 08:44:19;;;;;;;6.65;0.98;;;19.40;51.40;;;;;;4937332;29;20043;-84
2022/03/18 08:46:46;;;;;;;2.85;1.02;;;17.70;50.40;;;;;;4936218;29;20725;-81
2022/03/18 08:49:15;;;;;;;4.03;1.52;;;17.80;50.50;;;;;;4937388;29;20059;-81
2022/03/18 08:51:41;;;;;;;4.40;1.35;;;18.10;50.60;;;;;;4937427;29;20044;-81
2022/03/18 08:54:09;;;;;;;7.05;1.42;;;17.80;50.30;;;;;;4933660;29;20114;-84
2022/03/18 08:56:35;;;;;;;7.13;1.30;;;19.40;51.20;;;;;;4937315;29;20051;-85
2022/03/18 08:59:06;;;;;;;10.30;1.40;;;17.80;50.30;;;;;;4925873;29;20704;-85
2022/03/18 09:01:38;;;;;;;8.68;2.30;;;17.80;50.30;;;;;;4933350;29;20139;-85
2022/03/18 09:04:04;;;;;;;8.00;1.80;;;18.90;50.80;;;;;;4936633;29;20066;-85
2022/03/18 09:06:29;;;;;;;6.53;1.88;;;19.50;51.10;;;;;;4923554;29;20043;-84
2022/03/18 09:08:58;;;;;;;6.25;1.48;;;17.90;50.10;;;;;;4933492;29;20040;-84
2022/03/18 09:11:23;;;;;;;8.75;2.05;;;17.90;50.20;;;;;;4918760;28;20056;-84
2022/03/18 09:13:49;;;;;;;5.57;1.77;;;17.90;50.10;;;;;;4953127;28;20067;-84
2022/03/18 09:16:15;;;;;;;5.35;1.60;;;17.90;50.10;;;;;;4934382;29;20130;-84
2022/03/18 09:21:59;;;;;;;8.15;2.25;;;17.90;50.10;;;;;;912350;26;20371;-85
2022/03/18 09:28:16;;;;;;;7.72;1.40;;;17.90;50.00;;;;;;4876756;29;20109;-83
2022/03/18 09:38:32;;;;;;;4.50;1.33;;;17.30;49.60;;;;;;4803101;29;20091;-83
2022/03/18 09:41:17;;;;;;;6.85;1.40;;;17.50;49.70;;;;;;4784944;29;20059;-83
2022/03/18 09:43:56;;;;;;;8.85;1.42;;;17.70;49.80;;;;;;4819470;29;20056;-84
2022/03/18 09:47:19;;;;;;;5.32;1.50;;;18.80;51.90;;;;;;4839195;29;20049;-85
2022/03/18 09:49:45;;;;;;;5.10;1.38;;;18.00;49.90;;;;;;4861167;29;20064;-85
2022/03/18 09:52:11;;;;;;;7.60;1.75;;;18.20;51.40;;;;;;4873002;29;20127;-86
2022/03/18 09:54:51;;;;;;;6.45;1.63;;;19.40;51.50;;;;;;4859563;29;20181;-85
2022/03/18 09:57:17;;;;;;;4.05;1.30;;;19.60;51.30;;;;;;4872922;29;20064;-85
2022/03/18 09:59:55;;;;;;;7.88;1.75;;;19.90;51.20;;;;;;4937414;29;20095;-85
2022/03/18 10:02:36;;;;;;;4.70;1.73;;;18.30;50.20;;;;;;4951312;29;20090;-86
2022/03/18 10:05:14;;;;;;;6.35;1.40;;;18.10;50.00;;;;;;4947465;29;20154;-86
2022/03/18 10:07:40;;;;;;;4.72;1.00;;;17.50;50.40;;;;;;4945357;29;20070;-86
2022/03/18 10:10:10;;;;;;;5.43;1.58;;;18.70;50.70;;;;;;4934047;29;20484;-87
2022/03/18 10:12:36;;;;;;;4.97;1.25;;;18.10;49.80;;;;;;4933033;29;20051;-87
2022/03/18 10:15:09;;;;;;;6.97;1.80;;;19.10;50.30;;;;;;4936929;29;20047;-87
2022/03/18 10:17:48;;;;;;;4.82;1.27;;;19.20;50.40;;;;;;4936714;29;20039;-86
2022/03/18 10:20:35;;;;;;;6.88;1.33;;;18.20;49.70;;;;;;4952863;29;20122;-87
2022/03/18 10:23:15;;;;;;;5.47;1.20;;;18.30;49.70;;;;;;4931529;29;20051;-89
2022/03/18 10:25:51;;;;;;;4.22;1.17;;;18.30;49.70;;;;;;4935949;29;20051;-88
2022/03/18 10:28:36;;;;;;;7.20;1.60;;;18.30;49.70;;;;;;4935284;29;20047;-88
2022/03/18 10:31:15;;;;;;;6.22;0.90;;;18.40;49.70;;;;;;4950633;29;20043;-85
2022/03/18 10:39:31;;;;;;;4.22;1.35;;;18.50;49.60;;;;;;4954999;29;20076;-87
2022/03/18 10:42:00;;;;;;;;;;;18.50;49.60;;;;;;4951850;29;20424;-88
2022/03/18 10:44:41;;;;;;;2.97;0.82;;;18.60;49.60;;;;;;4944609;28;19981;-89
2022/03/18 10:47:09;;;;;;;3.97;0.95;;;18.60;49.60;;;;;;4946196;29;20066;-86
2022/03/18 10:49:35;;;;;;;3.70;1.35;;;20.10;50.50;;;;;;4928025;29;20082;-84
2022/03/18 10:52:10;;;;;;;5.35;1.30;;;18.70;49.60;;;;;;4911593;29;20130;-82
2022/03/18 10:54:35;;;;;;;3.88;1.10;;;18.70;49.50;;;;;;4924179;29;20062;-82
2022/03/18 10:57:04;;;;;;;2.88;0.90;;;18.70;49.40;;;;;;4943338;29;20051;-82
2022/03/18 10:59:31;;;;;;;4.05;0.98;;;18.70;49.40;;;;;;4941835;29;20134;-82
2022/03/18 11:01:57;;;;;;;4.18;1.00;;;18.70;49.40;;;;;;4942347;29;20518;-82
2022/03/18 11:04:23;;;;;;;4.07;0.95;;;18.80;49.40;;;;;;4923542;29;20138;-83
2022/03/18 11:12:28;;;;;;;3.33;0.90;;;18.80;49.30;;;;;;4949638;29;20047;-89
2022/03/18 11:14:57;;;;;;;7.53;1.50;;;18.80;49.30;;;;;;4935542;29;20053;-88
2022/03/18 11:17:24;;;;;;;5.45;1.58;;;18.80;49.30;;;;;;4936019;29;20043;-85
2022/03/18 11:19:53;;;;;;;6.55;1.40;;;18.90;49.30;;;;;;4953523;29;20133;-85
2022/03/18 11:22:20;;;;;;;4.53;1.52;;;18.80;49.30;;;;;;4935389;29;20047;-85
2022/03/18 11:24:45;;;;;;;3.85;1.30;;;18.80;49.30;;;;;;4920444;29;20538;-85
2022/03/18 11:27:12;;;;;;;3.92;1.40;;;18.80;49.30;;;;;;4916843;29;20050;-85
2022/03/18 11:30:16;;;;;;;5.25;1.35;;;18.70;49.20;;;;;;4890627;29;20097;-86
2022/03/18 11:32:41;;;;;;;4.95;1.10;;;18.80;49.30;;;;;;4936475;29;20079;-86
2022/03/18 11:38:54;;;;;;;4.72;1.23;;;18.20;49.00;;;;;;4935937;29;20059;-86
2022/03/18 11:41:46;;;;;;;5.28;1.38;;;18.80;49.40;;;;;;4936077;29;20035;-86
2022/03/18 11:44:40;;;;;;;3.30;1.15;;;18.70;49.30;;;;;;4946948;29;20055;-86
2022/03/18 11:49:50;;;;;;;6.00;1.20;;;18.70;49.30;;;;;;4955838;23;20578;-85
2022/03/18 11:52:15;;;;;;;3.13;0.98;;;20.00;50.40;;;;;;4948914;29;20407;-85
2022/03/18 11:55:21;;;;;;;4.57;1.35;;;18.80;49.60;;;;;;4922173;29;20039;-84
2022/03/18 11:57:47;;;;;;;4.43;1.40;;;17.90;48.90;;;;;;4939847;29;20062;-84
2022/03/18 12:00:42;;;;;;;4.25;1.08;;;17.90;49.40;;;;;;4933265;29;20043;-87
2022/03/18 12:03:19;;;;;;;3.88;1.30;;;18.70;49.30;;;;;;4933969;29;20060;-85
2022/03/18 12:06:01;;;;;;;4.38;1.20;;;18.80;49.60;;;;;;4932356;29;20059;-84
2022/03/18 12:08:49;;;;;;;6.03;1.77;;;20.30;50.40;;;;;;4915012;29;20476;-84
2022/03/18 12:12:13;;;;;;;2.55;1.10;;;18.70;49.20;;;;;;4930906;29;20051;-84
2022/03/18 12:18:38;;;;;;;3.70;0.90;;;18.80;49.20;;;;;;4932919;29;20090;-84
2022/03/18 12:25:26;;;;;;;4.50;1.20;;;18.50;49.00;;;;;;4935610;29;20039;-85
2022/03/18 12:28:06;;;;;;;4.35;1.13;;;18.70;49.10;;;;;;4926940;29;20043;-84
2022/03/18 12:30:32;;;;;;;3.55;0.88;;;19.40;50.00;;;;;;4912729;29;20054;-84
2022/03/18 12:33:00;;;;;;;2.75;0.70;;;19.00;50.60;;;;;;4931219;29;20036;-84
2022/03/18 13:06:22;;;;;;;4.80;0.80;;;19.10;49.10;;;;;;5223856;23;20122;-84
2022/03/18 13:09:30;;;;;;;2.67;0.65;;;19.00;49.30;;;;;;4946646;29;20047;-84
2022/03/18 13:12:25;;;;;;;2.25;0.60;;;18.80;49.00;;;;;;4914127;29;20043;-85
2022/03/18 13:15:29;;;;;;;2.00;0.63;;;19.20;49.10;;;;;;4864336;29;20116;-85
2022/03/18 13:18:17;;;;;;;3.25;0.80;;;19.20;49.10;;;;;;4869720;29;20195;-84
2022/03/18 13:24:22;;;;;;;1.63;0.47;;;19.00;49.00;;;;;;4939082;29;20056;-84
2022/03/18 13:35:48;;;;;;;2.08;0.60;;;19.20;49.00;;;;;;5514940;23;20059;-84
2022/03/18 13:38:46;;;;;;;1.67;0.70;;;20.30;49.80;;;;;;4931902;29;20055;-84
2022/03/18 13:41:17;;;;;;;2.30;0.63;;;19.10;49.20;;;;;;4928185;29;20087;-83
2022/03/18 13:43:45;;;;;;;2.22;0.60;;;18.80;49.60;;;;;;4952012;29;20619;-83
2022/03/18 13:46:30;;;;;;;2.15;0.50;;;19.30;49.10;;;;;;4925556;29;20056;-82
2022/03/18 13:49:18;;;;;;;2.60;0.50;;;19.20;49.00;;;;;;4920651;29;20050;-82
2022/03/18 13:51:47;;;;;;;2.00;0.50;;;19.30;49.10;;;;;;4955204;29;20042;-82
2022/03/18 13:54:17;;;;;;;2.60;0.60;;;19.30;49.00;;;;;;4946391;29;20079;-84
2022/03/18 13:57:25;;;;;;;1.65;0.50;;;19.30;49.00;;;;;;4930836;29;20054;-85
2022/03/18 13:59:51;;;;;;;2.90;0.80;;;19.30;49.30;;;;;;4945827;29;20499;-86
2022/03/18 14:02:36;;;;;;;6.95;1.20;;;20.10;49.40;;;;;;4935797;29;20520;-86
2022/03/18 14:05:50;;;;;;;6.20;1.00;;;20.40;49.70;;;;;;4952529;23;20089;-85
2022/03/18 14:09:03;;;;;;;2.72;0.80;;;19.40;49.00;;;;;;4909518;29;20146;-86
2022/03/18 14:14:36;;;;;;;4.07;0.70;;;18.70;48.70;;;;;;4952800;29;20444;-86
2022/03/18 14:17:16;;;;;;;2.03;0.60;;;17.10;47.80;;;;;;4954884;29;20058;-85
2022/03/18 14:20:00;;;;;;;3.17;0.73;;;19.40;49.00;;;;;;4934626;29;20082;-86
2022/03/18 14:22:42;;;;;;;3.33;0.80;;;20.80;50.50;;;;;;4951444;29;20043;-86
2022/03/18 14:25:20;;;;;;;1.67;0.55;;;19.40;49.60;;;;;;4935842;29;20063;-86
2022/03/18 14:27:51;;;;;;;1.25;0.40;;;18.60;49.10;;;;;;4934685;29;20135;-84
2022/03/18 14:30:31;;;;;;;4.35;1.15;;;18.60;48.90;;;;;;4936210;29;20048;-93
2022/03/18 14:32:58;;;;;;;3.72;1.13;;;17.60;48.40;;;;;;4931961;29;20042;-83
2022/03/18 14:35:24;;;;;;;5.10;0.80;;;20.40;49.60;;;;;;4954211;29;20046;-87
2022/03/18 14:37:59;;;;;;;3.63;0.82;;;19.30;49.00;;;;;;4936613;29;20048;-88
2022/03/18 14:40:37;;;;;;;3.75;0.68;;;20.20;49.60;;;;;;4953090;29;20051;-88
2022/03/18 14:43:06;;;;;;;3.55;0.88;;;20.70;50.10;;;;;;4936275;29;20043;-85
2022/03/18 14:45:35;;;;;;;2.38;0.60;;;20.90;50.50;;;;;;4953365;29;20488;-86
2022/03/18 14:48:01;;;;;;;2.50;0.60;;;20.60;49.80;;;;;;4937416;29;20400;-87
2022/03/18 14:50:40;;;;;;;3.03;0.80;;;20.50;50.20;;;;;;4937268;29;20047;-87
2022/03/18 14:53:12;;;;;;;3.63;0.70;;;19.40;49.30;;;;;;4953616;29;20054;-88
2022/03/18 14:58:23;;;;;;;2.17;0.80;;;20.20;50.00;;;;;;4950176;29;20054;-83